createdAt,value
2022-09-28T00:00:35.630Z,98978.56
2022-09-28T00:06:40.640Z,98963.03
2022-09-28T00:12:42.977Z,98969.38
2022-09-28T00:17:49.377Z,98969.44
2022-09-28T00:22:56.968Z,98961.78
2022-09-28T00:28:03.556Z,98958.47
2022-09-28T00:33:09.856Z,98957.91
2022-09-28T00:38:18.265Z,98964.06
2022-09-28T00:43:26.685Z,98964.81
2022-09-28T00:48:37.658Z,98967.59
2022-09-28T00:53:46.847Z,98965.25
2022-09-28T00:58:56.159Z,98957.75
2022-09-28T01:16:40.149Z,98951.22
2022-09-28T01:22:27.916Z,98931.44
2022-09-28T01:27:39.266Z,98938.88
2022-09-28T01:32:55.554Z,98934.81
2022-09-28T01:38:08.916Z,98931.88
2022-09-28T01:43:22.412Z,98932.19
2022-09-28T01:48:35.108Z,98923.13
2022-09-28T01:53:45.223Z,98917.56
2022-09-28T01:59:04.873Z,98922.63
2022-09-28T02:04:16.563Z,98920.06
2022-09-28T02:09:33.950Z,98925.22
2022-09-28T02:14:45.620Z,98931.38
2022-09-28T02:19:51.676Z,98938.97
2022-09-28T02:25:00.920Z,98935.41
2022-09-28T02:30:11.948Z,98930.19
2022-09-28T02:35:20.024Z,98932.13
2022-09-28T02:40:30.630Z,98932.19
2022-09-28T02:45:52.916Z,98921.75
2022-09-28T02:51:13.576Z,98925.97
2022-09-28T02:56:54.719Z,98921.75
2022-09-28T03:02:12.458Z,98913.34
2022-09-28T03:07:25.846Z,98909.78
2022-09-28T03:12:33.575Z,98908.22
2022-09-28T03:17:41.666Z,98912.78
2022-09-28T03:23:00.530Z,98914.59
2022-09-28T03:28:14.144Z,98922.34
2022-09-28T03:33:22.039Z,98922.72
2022-09-28T03:38:28.021Z,98929.78
2022-09-28T03:43:34.332Z,98932.13
2022-09-28T03:48:43.358Z,98933.22
2022-09-28T03:53:50.111Z,98925.47
2022-09-28T03:58:56.269Z,98922.34
2022-09-28T04:04:04.074Z,98936.19
2022-09-28T04:09:11.100Z,98948.47
2022-09-28T04:14:17.392Z,98948.47
2022-09-28T04:19:25.519Z,98943.50
2022-09-28T04:24:56.994Z,98947.97
2022-09-28T04:30:02.951Z,98947.97
2022-09-28T04:35:14.491Z,98950.56
2022-09-28T04:40:20.631Z,98952.44
2022-09-28T04:45:28.286Z,98954.28
2022-09-28T04:50:41.597Z,98952.66
2022-09-28T04:56:02.145Z,98948.28
2022-09-28T05:01:14.366Z,98957.16
2022-09-28T05:06:54.277Z,98947.59
2022-09-28T05:12:00.466Z,98955.63
2022-09-28T05:17:06.625Z,98958.16
2022-09-28T05:22:21.325Z,98956.22
2022-09-28T05:27:27.289Z,98958.91
2022-09-28T05:32:58.977Z,98959.97
2022-09-28T05:38:21.278Z,98968.69
2022-09-28T05:43:27.502Z,98957.31
2022-09-28T05:48:33.651Z,98957.31
2022-09-28T05:53:41.138Z,98961.53
2022-09-28T05:58:47.352Z,98967.44
2022-09-28T06:03:55.661Z,98969.09
2022-09-28T06:09:04.017Z,98973.50
2022-09-28T06:14:21.023Z,98978.03
2022-09-28T06:19:27.656Z,98971.03
2022-09-28T06:25:04.403Z,98974.50
2022-09-28T06:30:11.341Z,98971.88
2022-09-28T06:35:19.249Z,98977.00
2022-09-28T06:40:27.197Z,98972.81
2022-09-28T06:45:33.336Z,98977.09
2022-09-28T06:50:59.705Z,98986.38
2022-09-28T06:56:31.967Z,98984.63
2022-09-28T07:01:38.899Z,98991.25
2022-09-28T07:07:09.291Z,98994.81
2022-09-28T07:12:41.864Z,98995.50
2022-09-28T07:18:09.613Z,99001.50
2022-09-28T07:23:19.399Z,99001.38
2022-09-28T07:28:45.788Z,99004.25
2022-09-28T07:34:18.931Z,99013.09
2022-09-28T07:40:05.287Z,99019.00
2022-09-28T07:45:16.422Z,99010.22
2022-09-28T07:50:22.610Z,99018.84
2022-09-28T07:55:36.767Z,99025.16
2022-09-28T08:01:07.829Z,99036.13
2022-09-28T08:06:17.926Z,99031.81
2022-09-28T08:11:25.128Z,99033.66
2022-09-28T08:16:53.356Z,99034.81
2022-09-28T08:22:20.979Z,99043.28
2022-09-28T08:27:29.431Z,99045.63
2022-09-28T08:32:37.849Z,99042.88
2022-09-28T08:38:03.709Z,99041.16
2022-09-28T08:43:52.523Z,99058.38
2022-09-28T08:49:28.136Z,99049.00
2022-09-28T08:55:18.697Z,99048.16
2022-09-28T09:00:35.096Z,99042.19
2022-09-28T09:06:01.732Z,99045.69
2022-09-28T09:11:59.594Z,99041.34
2022-09-28T09:17:20.252Z,99044.63
2022-09-28T09:22:57.333Z,99044.63
2022-09-28T09:28:48.288Z,99044.91
2022-09-28T09:34:32.708Z,99047.16
2022-09-28T09:40:20.974Z,99052.16
2022-09-28T09:46:07.835Z,99048.47
2022-09-28T09:51:38.758Z,99057.56
2022-09-28T09:56:53.803Z,99057.41
2022-09-28T10:02:25.738Z,99057.50
2022-09-28T10:07:48.376Z,99060.84
2022-09-28T10:12:56.342Z,99062.56
2022-09-28T10:18:08.057Z,99068.69
2022-09-28T10:23:39.461Z,99073.75
2022-09-28T10:28:53.505Z,99069.38
2022-09-28T10:34:00.188Z,99066.59
2022-09-28T10:39:07.379Z,99074.19
2022-09-28T10:44:20.865Z,99070.72
2022-09-28T10:49:53.628Z,99061.88
2022-09-28T10:55:03.146Z,99056.22
2022-09-28T11:00:34.828Z,99060.94
2022-09-28T11:06:04.640Z,99055.19
2022-09-28T11:11:13.332Z,99056.56
2022-09-28T11:16:29.880Z,99057.34
2022-09-28T11:21:46.304Z,99048.72
2022-09-28T11:26:56.782Z,99054.03
2022-09-28T11:32:11.399Z,99054.50
2022-09-28T11:38:17.117Z,99053.94
2022-09-28T11:44:20.826Z,99054.78
2022-09-28T11:49:41.856Z,99050.22
2022-09-28T11:54:56.355Z,99052.28
2022-09-28T12:00:07.530Z,99048.38
2022-09-28T12:05:29.774Z,99059.25
2022-09-28T12:10:45.682Z,99074.03
2022-09-28T12:16:27.243Z,99074.19
2022-09-28T12:21:42.338Z,99073.94
2022-09-28T12:26:55.537Z,99070.88
2022-09-28T12:32:12.189Z,99073.16
2022-09-28T12:37:42.342Z,99068.69
2022-09-28T12:43:07.743Z,99061.28
2022-09-28T12:48:41.791Z,99056.16
2022-09-28T12:54:09.712Z,99045.31
2022-09-28T12:59:24.187Z,99047.31
2022-09-28T13:04:52.135Z,99053.66
2022-09-28T13:10:16.454Z,99061.50
2022-09-28T13:15:41.566Z,99042.53
2022-09-28T13:21:07.148Z,99034.69
2022-09-28T13:26:27.463Z,99028.28
2022-09-28T13:31:37.166Z,99014.41
2022-09-28T13:36:48.272Z,99023.94
2022-09-28T13:41:56.334Z,99025.81
2022-09-28T13:47:21.112Z,99030.03
2022-09-28T13:52:49.705Z,99036.78
2022-09-28T13:58:04.835Z,99028.09
2022-09-28T14:03:28.930Z,99029.19
2022-09-28T14:08:40.591Z,99024.03
2022-09-28T14:14:07.527Z,99031.72
2022-09-28T14:19:22.560Z,99029.09
2022-09-28T14:24:56.910Z,99025.47
2022-09-28T14:30:23.013Z,99029.00
2022-09-28T14:35:34.507Z,99036.97
2022-09-28T14:41:11.402Z,99030.03
2022-09-28T14:46:47.233Z,99026.56
2022-09-28T14:52:04.290Z,99024.88
2022-09-28T14:57:22.481Z,99034.41
2022-09-28T15:02:34.531Z,99043.19
2022-09-28T15:07:49.947Z,99054.59
2022-09-28T15:12:57.905Z,99052.06
2022-09-28T15:18:38.866Z,99059.34
2022-09-28T15:23:48.298Z,99053.28
2022-09-28T15:28:54.842Z,99035.41
2022-09-28T15:34:19.626Z,99025.94
2022-09-28T15:39:32.390Z,99034.72
2022-09-28T15:44:45.817Z,99032.94
2022-09-28T15:50:01.492Z,99038.34
2022-09-28T15:55:24.299Z,99037.59
2022-09-28T16:00:32.426Z,99031.66
2022-09-28T16:05:45.621Z,99031.41
2022-09-28T16:11:05.447Z,99041.88
2022-09-28T16:16:18.236Z,99035.91
2022-09-28T16:21:49.944Z,99039.53
2022-09-28T16:27:02.918Z,99040.28
2022-09-28T16:32:42.016Z,99044.75
2022-09-28T16:37:50.852Z,99036.31
2022-09-28T16:43:03.471Z,99028.81
2022-09-28T16:48:11.237Z,99036.66
2022-09-28T16:53:37.654Z,99027.88
2022-09-28T16:58:48.379Z,99039.16
2022-09-28T17:03:54.443Z,99035.81
2022-09-28T17:09:07.024Z,99037.22
2022-09-28T17:14:13.328Z,99041.34
2022-09-28T17:19:23.492Z,99054.25
2022-09-28T17:24:31.244Z,99076.00
2022-09-28T17:29:37.755Z,99071.97
2022-09-28T17:34:51.544Z,99058.88
2022-09-28T17:40:03.883Z,99051.84
2022-09-28T17:45:10.720Z,99054.09
2022-09-28T17:50:24.223Z,99047.75
2022-09-28T17:55:33.562Z,99061.75
2022-09-28T18:00:40.553Z,99073.31
2022-09-28T18:05:48.519Z,99077.53
2022-09-28T18:10:57.101Z,99090.59
2022-09-28T18:16:06.296Z,99069.56
2022-09-28T18:21:12.850Z,99072.66
2022-09-28T18:26:21.304Z,99068.50
2022-09-28T18:31:28.269Z,99060.81
2022-09-28T18:36:36.608Z,99048.56
2022-09-28T18:41:44.708Z,99057.81
2022-09-28T18:46:51.855Z,99063.97
2022-09-28T18:51:58.766Z,99058.31
2022-09-28T18:57:06.588Z,99060.13
2022-09-28T19:02:13.216Z,99053.25
2022-09-28T19:07:19.497Z,99066.06
2022-09-28T19:12:27.032Z,99074.66
2022-09-28T19:17:35.434Z,99058.22
2022-09-28T19:22:41.669Z,99062.75
2022-09-28T19:27:50.209Z,99068.91
2022-09-28T19:32:56.339Z,99066.97
2022-09-28T19:38:02.597Z,99052.47
2022-09-28T19:43:10.465Z,99067.13
2022-09-28T19:48:16.616Z,99067.06
2022-09-28T19:53:22.597Z,99069.91
2022-09-28T19:58:34.986Z,99066.53
2022-09-28T20:03:41.250Z,99070.91
2022-09-28T20:08:47.573Z,99076.19
2022-09-28T20:13:55.542Z,99067.88
2022-09-28T20:19:04.310Z,99074.91
2022-09-28T20:24:12.798Z,99076.63
2022-09-28T20:29:20.364Z,99073.69
2022-09-28T20:34:26.510Z,99077.16
2022-09-28T20:39:32.645Z,99076.47
2022-09-28T20:44:40.202Z,99077.91
2022-09-28T20:49:46.758Z,99091.59
2022-09-28T20:54:53.887Z,99106.91
2022-09-28T21:00:01.629Z,99101.94
2022-09-28T21:05:11.151Z,99094.06
2022-09-28T21:10:18.119Z,99102.38
2022-09-28T21:15:25.490Z,99106.44
2022-09-28T21:20:31.544Z,99118.72
2022-09-28T21:25:37.493Z,99108.78
2022-09-28T21:30:47.026Z,99112.03
2022-09-28T21:35:53.157Z,99107.81
2022-09-28T21:41:01.056Z,99103.06
2022-09-28T21:46:11.594Z,99106.56
2022-09-28T21:51:17.964Z,99114.88
2022-09-28T21:56:24.572Z,99120.88
2022-09-28T22:01:33.137Z,99122.72
2022-09-28T22:06:40.126Z,99130.13
2022-09-28T22:11:46.553Z,99131.09
2022-09-28T22:16:53.809Z,99131.63
2022-09-28T22:21:59.892Z,99130.38
2022-09-28T22:27:06.328Z,99138.78
2022-09-28T22:32:13.803Z,99143.75
2022-09-28T22:37:19.677Z,99148.84
2022-09-28T22:42:25.714Z,99153.28
2022-09-28T22:47:33.015Z,99155.25
2022-09-28T22:52:39.230Z,99154.88
2022-09-28T22:57:45.279Z,99155.84
2022-09-28T23:02:52.907Z,99156.38
2022-09-28T23:07:59.345Z,99151.63
2022-09-28T23:13:05.327Z,99148.50
2022-09-28T23:18:12.575Z,99154.88
2022-09-28T23:23:18.420Z,99159.13
2022-09-28T23:28:26.986Z,99157.22
2022-09-28T23:33:34.458Z,99160.53
2022-09-28T23:38:41.520Z,99159.13
2022-09-28T23:43:47.446Z,99170.72
2022-09-28T23:48:55.155Z,99177.09
2022-09-28T23:54:04.708Z,99176.25
2022-09-28T23:59:10.662Z,99179.63
